Time;durP1;ratioP1;P1;durP2;ratioP2;P2;SDS_P1;SDS_P2;PMS_P1;PMS_P2;Temp;Humidity;BMP_temperature;BMP_pressure;BME280_temperature;BME280_humidity;BME280_pressure;Samples;Min_cycle;Max_cycle;Signal;HPM_P1;HPM_P2
2021/09/21 00:00:08;;;;;;;3.13;1.08;;;19.40;96.70;;;;;;5112947;27;20126;-77
2021/09/21 00:02:37;;;;;;;3.90;1.33;;;19.40;96.70;;;;;;5114681;27;20057;-77
2021/09/21 00:05:07;;;;;;;6.28;1.92;;;19.40;96.70;;;;;;5112785;27;20829;-77
2021/09/21 00:07:35;;;;;;;3.78;1.52;;;19.50;96.70;;;;;;5116348;27;20050;-77
2021/09/21 00:10:05;;;;;;;4.10;1.73;;;19.40;96.70;;;;;;5117178;27;20058;-77
2021/09/21 00:12:33;;;;;;;4.50;2.22;;;19.50;96.70;;;;;;5119885;27;20488;-77
2021/09/21 00:15:02;;;;;;;5.40;1.77;;;19.40;96.70;;;;;;5122693;27;20763;-78
2021/09/21 00:17:32;;;;;;;7.22;2.25;;;19.40;96.70;;;;;;5116204;27;20039;-77
2021/09/21 00:20:01;;;;;;;5.40;1.92;;;19.30;96.70;;;;;;5119228;27;20632;-78
2021/09/21 00:22:29;;;;;;;5.60;2.05;;;19.20;96.70;;;;;;5120428;27;20040;-77
2021/09/21 00:24:57;;;;;;;6.25;2.53;;;19.20;96.70;;;;;;5109817;27;20043;-78
2021/09/21 00:27:26;;;;;;;4.95;1.95;;;19.20;96.70;;;;;;5098341;27;20072;-78
2021/09/21 00:29:55;;;;;;;4.45;2.25;;;19.20;96.70;;;;;;5111198;27;20031;-78
2021/09/21 00:32:26;;;;;;;6.40;2.33;;;19.20;96.70;;;;;;5122669;27;20066;-77
2021/09/21 00:34:56;;;;;;;6.88;2.65;;;19.20;96.70;;;;;;5114310;27;20039;-78
2021/09/21 00:37:25;;;;;;;10.18;3.20;;;19.20;96.70;;;;;;5115412;27;20044;-78
2021/09/21 00:39:53;;;;;;;6.35;2.53;;;19.20;96.70;;;;;;5112777;27;20039;-79
2021/09/21 00:42:29;;;;;;;5.10;2.63;;;19.20;96.70;;;;;;5119298;27;20035;-78
2021/09/21 00:45:06;;;;;;;7.93;3.10;;;19.30;96.70;;;;;;5115535;27;20043;-78
2021/09/21 00:47:34;;;;;;;5.97;3.35;;;19.40;96.70;;;;;;5122016;27;20039;-78
2021/09/21 00:50:04;;;;;;;5.63;3.83;;;19.40;96.70;;;;;;5114263;27;20043;-77
2021/09/21 00:52:33;;;;;;;6.93;4.47;;;19.40;96.70;;;;;;5122444;27;20063;-78
2021/09/21 00:55:03;;;;;;;5.68;4.65;;;19.50;96.70;;;;;;5111634;27;20423;-78
2021/09/21 00:57:32;;;;;;;7.45;5.65;;;19.50;96.70;;;;;;5121322;27;20479;-78
2021/09/21 01:00:00;;;;;;;9.18;5.65;;;19.60;96.70;;;;;;5113159;27;20533;-78
2021/09/21 01:02:28;;;;;;;8.85;5.93;;;19.60;96.70;;;;;;5115409;27;20068;-78
2021/09/21 01:04:57;;;;;;;7.70;5.90;;;19.50;96.70;;;;;;5122641;27;20500;-79
2021/09/21 01:07:27;;;;;;;7.72;5.85;;;19.60;96.70;;;;;;5097089;28;20048;-78
2021/09/21 01:10:04;;;;;;;6.28;4.90;;;19.50;96.70;;;;;;5118761;27;20514;-78
2021/09/21 01:12:33;;;;;;;7.00;4.70;;;19.50;96.70;;;;;;5122676;27;20500;-78
2021/09/21 01:15:02;;;;;;;7.50;4.60;;;19.50;96.70;;;;;;5121934;27;20039;-78
2021/09/21 01:17:31;;;;;;;7.53;4.05;;;19.50;96.70;;;;;;5093529;27;20039;-78
2021/09/21 01:19:59;;;;;;;7.78;4.18;;;19.50;96.70;;;;;;5122243;27;20039;-77
2021/09/21 01:22:29;;;;;;;5.78;3.78;;;19.60;96.70;;;;;;5108708;27;20499;-77
2021/09/21 01:24:57;;;;;;;7.43;2.97;;;19.60;96.70;;;;;;5115322;27;20120;-78
2021/09/21 01:27:26;;;;;;;4.00;2.53;;;19.60;96.70;;;;;;5105539;27;20486;-77
2021/09/21 01:29:54;;;;;;;5.65;2.60;;;19.60;96.70;;;;;;5123342;27;20054;-78
2021/09/21 01:32:23;;;;;;;3.58;2.33;;;19.70;96.70;;;;;;5120405;27;20540;-78
2021/09/21 01:34:52;;;;;;;5.28;2.63;;;19.70;96.70;;;;;;5116758;27;20067;-77
2021/09/21 01:37:22;;;;;;;6.85;3.05;;;19.60;96.70;;;;;;5118501;27;20040;-78
2021/09/21 01:39:52;;;;;;;4.80;2.35;;;19.60;96.70;;;;;;5116950;27;20039;-77
2021/09/21 01:42:20;;;;;;;5.30;2.80;;;19.60;96.70;;;;;;5111631;27;20408;-77
2021/09/21 01:44:49;;;;;;;6.47;2.80;;;19.60;96.70;;;;;;5111933;27;20039;-78
2021/09/21 01:47:20;;;;;;;4.22;2.40;;;19.60;96.70;;;;;;5123465;27;20446;-77
2021/09/21 01:52:52;;;;;;;;;;;19.50;96.70;;;;;;5079885;27;20047;-77
2021/09/21 02:01:00;;;;;;;8.43;2.10;;;19.50;96.70;;;;;;5114579;27;20492;-77
2021/09/21 02:03:29;;;;;;;5.85;2.20;;;19.40;96.70;;;;;;5119225;27;20147;-78
2021/09/21 02:05:57;;;;;;;7.85;2.45;;;19.40;96.70;;;;;;5116940;27;20563;-77
2021/09/21 02:08:25;;;;;;;3.75;1.85;;;19.30;96.70;;;;;;5114073;27;20042;-78
2021/09/21 02:10:55;;;;;;;5.25;2.05;;;19.30;96.70;;;;;;5118327;27;20108;-77
2021/09/21 02:13:23;;;;;;;9.52;1.98;;;19.40;96.70;;;;;;5098488;28;20118;-77
2021/09/21 02:15:52;;;;;;;4.45;1.70;;;19.40;96.70;;;;;;5101733;28;20035;-78
2021/09/21 02:18:20;;;;;;;6.28;1.98;;;19.40;96.70;;;;;;5115699;27;20522;-77
2021/09/21 02:20:48;;;;;;;6.40;1.80;;;19.40;96.70;;;;;;5110839;27;20459;-77
2021/09/21 02:23:17;;;;;;;4.75;1.80;;;19.40;96.70;;;;;;5117607;27;20043;-77
2021/09/21 02:25:45;;;;;;;5.03;1.90;;;19.40;96.70;;;;;;5119791;27;20415;-77
2021/09/21 02:28:15;;;;;;;2.60;1.63;;;19.30;96.70;;;;;;5103460;28;20043;-78
2021/09/21 02:30:44;;;;;;;7.30;2.40;;;19.20;96.70;;;;;;5112419;27;20104;-77
2021/09/21 02:33:15;;;;;;;7.88;2.58;;;19.10;96.70;;;;;;5117409;27;20049;-77
2021/09/21 02:35:43;;;;;;;4.55;1.98;;;19.10;96.70;;;;;;5111124;27;20039;-77
2021/09/21 02:38:11;;;;;;;5.88;2.65;;;19.20;96.70;;;;;;5107681;28;20359;-77
2021/09/21 02:40:39;;;;;;;4.35;2.47;;;19.10;96.70;;;;;;5110355;27;20050;-77
2021/09/21 02:43:08;;;;;;;6.38;2.42;;;19.10;96.70;;;;;;5114508;28;20043;-77
2021/09/21 02:45:38;;;;;;;4.05;2.58;;;19.10;96.70;;;;;;5100190;28;20489;-78
2021/09/21 02:48:06;;;;;;;4.38;2.38;;;19.10;96.70;;;;;;5115731;27;20031;-78
2021/09/21 02:50:35;;;;;;;4.32;2.45;;;19.10;96.70;;;;;;5119276;27;20066;-78
2021/09/21 02:53:03;;;;;;;4.32;2.20;;;19.10;96.70;;;;;;5112265;28;20039;-78
2021/09/21 02:55:31;;;;;;;6.38;2.05;;;19.10;96.70;;;;;;5112959;27;20499;-78
2021/09/21 02:58:00;;;;;;;5.00;1.98;;;19.10;96.70;;;;;;5115811;27;20043;-78
2021/09/21 03:00:28;;;;;;;6.38;2.17;;;19.10;96.70;;;;;;5117887;27;20204;-78
2021/09/21 03:03:02;;;;;;;3.72;2.05;;;19.10;96.70;;;;;;5111424;27;20047;-78
2021/09/21 03:05:39;;;;;;;3.05;2.05;;;19.00;96.70;;;;;;5098624;28;20500;-78
2021/09/21 03:08:16;;;;;;;4.20;2.88;;;19.00;96.70;;;;;;5110975;27;20108;-78
2021/09/21 03:10:55;;;;;;;6.55;3.40;;;18.90;96.70;;;;;;5118105;27;20114;-78
2021/09/21 03:18:56;;;;;;;4.70;3.00;;;18.90;96.70;;;;;;5130725;27;20058;-78
2021/09/21 03:21:25;;;;;;;7.18;4.07;;;18.90;96.70;;;;;;5116915;27;20044;-78
2021/09/21 03:23:53;;;;;;;4.72;3.03;;;18.90;96.70;;;;;;5119354;27;20039;-78
2021/09/21 03:26:21;;;;;;;5.28;3.55;;;18.80;96.70;;;;;;5119734;27;20054;-78
2021/09/21 03:28:50;;;;;;;5.25;3.80;;;18.70;96.70;;;;;;5123616;27;20522;-78
2021/09/21 03:31:18;;;;;;;4.55;3.25;;;18.70;96.70;;;;;;5107683;27;20054;-78
2021/09/21 03:33:46;;;;;;;5.43;3.13;;;18.70;96.70;;;;;;5116487;27;20043;-78
2021/09/21 03:36:16;;;;;;;7.63;3.85;;;18.70;96.70;;;;;;5125598;27;20035;-78
2021/09/21 03:38:44;;;;;;;5.90;3.53;;;18.70;96.70;;;;;;5122980;27;20043;-78
2021/09/21 03:41:13;;;;;;;5.32;3.63;;;18.70;96.70;;;;;;5115158;27;20049;-78
2021/09/21 03:43:41;;;;;;;6.85;3.58;;;18.60;96.70;;;;;;5122352;27;20043;-78
2021/09/21 03:46:09;;;;;;;5.63;3.80;;;18.60;96.70;;;;;;5123719;27;20050;-78
2021/09/21 03:48:38;;;;;;;6.47;3.45;;;18.60;96.70;;;;;;5107876;27;20130;-77
2021/09/21 03:51:06;;;;;;;5.63;3.75;;;18.60;96.70;;;;;;5106294;27;20067;-78
2021/09/21 03:53:36;;;;;;;7.50;4.28;;;18.50;96.70;;;;;;5117585;27;20036;-78
2021/09/21 03:56:05;;;;;;;6.35;3.80;;;18.50;96.70;;;;;;5126191;27;20047;-78
2021/09/21 03:58:34;;;;;;;8.20;4.57;;;18.50;96.70;;;;;;5116624;27;20053;-77
2021/09/21 04:01:03;;;;;;;5.90;4.22;;;18.60;96.70;;;;;;5117667;27;20500;-78
2021/09/21 04:03:31;;;;;;;4.90;4.15;;;18.60;96.70;;;;;;5123544;27;20047;-78
2021/09/21 04:05:59;;;;;;;4.85;3.35;;;18.60;96.70;;;;;;5109295;27;20051;-78
2021/09/21 04:08:28;;;;;;;5.80;3.90;;;18.60;96.70;;;;;;5129443;27;20187;-78
2021/09/21 04:10:58;;;;;;;6.07;4.00;;;18.60;96.70;;;;;;5116138;27;20066;-78
2021/09/21 04:13:26;;;;;;;6.38;3.70;;;18.70;96.70;;;;;;5120428;27;21086;-78
2021/09/21 04:15:55;;;;;;;7.15;4.18;;;18.70;96.70;;;;;;5124968;27;20031;-78
2021/09/21 04:18:23;;;;;;;5.97;4.03;;;18.50;96.70;;;;;;5122374;27;20031;-78
2021/09/21 04:20:51;;;;;;;5.25;3.95;;;18.50;96.70;;;;;;5114473;27;20040;-78
2021/09/21 04:23:20;;;;;;;6.00;4.45;;;18.40;96.70;;;;;;5119307;27;20496;-78
2021/09/21 04:25:48;;;;;;;6.30;3.75;;;18.40;96.70;;;;;;5121353;27;20047;-77
2021/09/21 04:28:20;;;;;;;10.07;4.95;;;18.40;96.70;;;;;;5124146;27;20523;-78
2021/09/21 04:30:49;;;;;;;4.75;3.58;;;18.40;96.70;;;;;;5127946;27;20489;-77
2021/09/21 04:33:18;;;;;;;8.45;4.10;;;18.40;96.70;;;;;;5092915;27;20043;-78
2021/09/21 04:35:47;;;;;;;4.60;3.67;;;18.30;96.70;;;;;;5110811;27;20043;-76
2021/09/21 04:38:15;;;;;;;6.97;3.95;;;18.30;96.70;;;;;;5112857;27;20304;-77
2021/09/21 04:40:43;;;;;;;4.93;3.50;;;18.30;96.70;;;;;;5118441;27;20123;-78
2021/09/21 04:43:11;;;;;;;5.85;3.75;;;18.30;96.70;;;;;;5110394;27;20036;-78
2021/09/21 04:45:42;;;;;;;4.10;3.45;;;18.30;96.70;;;;;;5115327;27;20563;-77
2021/09/21 04:48:10;;;;;;;7.20;3.65;;;18.30;96.70;;;;;;5109136;27;20052;-78
2021/09/21 04:50:38;;;;;;;6.10;3.25;;;18.30;96.70;;;;;;5110831;27;20035;-76
2021/09/21 04:53:07;;;;;;;5.78;3.88;;;18.40;96.70;;;;;;5120744;27;20054;-76
2021/09/21 04:55:35;;;;;;;4.78;3.47;;;18.40;96.70;;;;;;5118527;27;20046;-76
2021/09/21 04:58:03;;;;;;;6.32;3.72;;;18.40;96.70;;;;;;5110921;27;20147;-76
2021/09/21 05:00:31;;;;;;;7.35;3.80;;;18.40;96.70;;;;;;5118782;27;20115;-76
2021/09/21 05:03:01;;;;;;;6.05;3.70;;;18.40;96.70;;;;;;5122675;27;20047;-76
2021/09/21 05:05:30;;;;;;;5.82;3.30;;;18.40;96.70;;;;;;5121647;27;20069;-76
2021/09/21 05:08:01;;;;;;;6.43;3.40;;;18.40;96.70;;;;;;5110080;27;20046;-76
2021/09/21 05:10:31;;;;;;;5.20;3.50;;;18.40;96.70;;;;;;5118790;27;20043;-76
2021/09/21 05:13:00;;;;;;;5.22;3.05;;;18.40;96.70;;;;;;5118784;27;20062;-76
2021/09/21 05:15:29;;;;;;;6.15;2.60;;;18.40;96.70;;;;;;5118262;27;20043;-76
2021/09/21 05:17:57;;;;;;;5.95;3.42;;;18.50;96.70;;;;;;5112677;27;20080;-76
2021/09/21 05:20:27;;;;;;;5.65;2.72;;;18.40;96.70;;;;;;5119375;27;20045;-76
2021/09/21 05:22:56;;;;;;;3.85;2.53;;;18.40;96.70;;;;;;5108567;27;20060;-75
2021/09/21 05:25:24;;;;;;;4.97;2.35;;;18.40;96.70;;;;;;5119762;27;20046;-76
2021/09/21 05:27:53;;;;;;;5.15;2.53;;;18.40;96.70;;;;;;5107602;27;20314;-76
2021/09/21 05:30:21;;;;;;;5.03;2.47;;;18.40;96.70;;;;;;5115242;27;20042;-75
2021/09/21 05:32:50;;;;;;;4.10;2.75;;;18.50;96.70;;;;;;5120923;27;20103;-76
2021/09/21 05:35:18;;;;;;;7.65;2.97;;;18.50;96.70;;;;;;5111407;27;20543;-76
2021/09/21 05:37:48;;;;;;;9.43;3.72;;;18.40;96.70;;;;;;5129405;27;20389;-76
2021/09/21 05:40:17;;;;;;;5.18;3.53;;;18.40;96.70;;;;;;5107931;27;20051;-75
2021/09/21 05:42:46;;;;;;;6.97;3.00;;;18.30;96.70;;;;;;5113427;27;20159;-76
2021/09/21 05:45:15;;;;;;;5.47;2.85;;;18.30;96.70;;;;;;5112758;27;20142;-76
2021/09/21 05:47:43;;;;;;;4.85;2.88;;;18.30;96.70;;;;;;5112824;27;20035;-76
2021/09/21 05:50:14;;;;;;;5.10;2.65;;;18.30;96.70;;;;;;5119203;27;20784;-76
2021/09/21 05:52:44;;;;;;;4.78;2.35;;;18.30;96.70;;;;;;5113312;27;20051;-76
2021/09/21 05:55:15;;;;;;;5.15;2.60;;;18.30;96.70;;;;;;5114072;27;20567;-76
2021/09/21 05:57:44;;;;;;;6.30;2.95;;;18.30;96.70;;;;;;5117722;27;20044;-76
2021/09/21 06:00:14;;;;;;;4.32;3.08;;;18.30;96.70;;;;;;5110167;27;20035;-76
2021/09/21 06:02:42;;;;;;;4.53;3.15;;;18.40;96.70;;;;;;5114224;27;20047;-76
2021/09/21 06:05:12;;;;;;;7.28;3.53;;;18.40;96.70;;;;;;5108881;27;20095;-76
2021/09/21 06:07:45;;;;;;;9.52;4.63;;;18.50;96.70;;;;;;5116012;27;20629;-76
2021/09/21 06:10:16;;;;;;;8.10;4.45;;;18.50;96.70;;;;;;5110085;27;20051;-76
2021/09/21 06:12:51;;;;;;;6.82;4.70;;;18.60;96.70;;;;;;5111534;27;20043;-75
2021/09/21 06:15:20;;;;;;;7.82;4.57;;;18.70;96.70;;;;;;5119857;27;20629;-76
2021/09/21 06:17:50;;;;;;;6.63;3.85;;;18.70;96.70;;;;;;5096279;27;20051;-76
2021/09/21 06:20:18;;;;;;;7.47;4.50;;;18.70;96.70;;;;;;5108770;27;20412;-76
2021/09/21 06:22:47;;;;;;;9.10;5.22;;;18.70;96.70;;;;;;5114454;27;20053;-76
2021/09/21 06:25:17;;;;;;;8.32;4.85;;;18.70;96.70;;;;;;5107639;27;20036;-75
2021/09/21 06:27:46;;;;;;;7.15;4.72;;;18.80;96.70;;;;;;5114564;27;20054;-76
2021/09/21 06:30:16;;;;;;;5.97;4.28;;;18.90;96.70;;;;;;5107006;27;20040;-76
2021/09/21 06:32:46;;;;;;;10.63;3.88;;;19.00;96.70;;;;;;5121588;27;20564;-76
2021/09/21 06:35:15;;;;;;;6.03;3.85;;;19.10;96.70;;;;;;5120059;27;20047;-76
2021/09/21 06:37:43;;;;;;;9.02;3.90;;;19.20;96.70;;;;;;5098435;27;20801;-76
2021/09/21 06:40:13;;;;;;;7.53;3.55;;;19.20;96.70;;;;;;5106354;27;20039;-76
2021/09/21 06:42:43;;;;;;;5.95;3.17;;;19.30;96.70;;;;;;5121598;27;20116;-76
2021/09/21 06:45:14;;;;;;;7.00;3.30;;;19.30;96.70;;;;;;5110638;27;20046;-76
2021/09/21 06:47:43;;;;;;;4.90;2.88;;;19.30;96.70;;;;;;5118396;27;20461;-76
2021/09/21 06:50:13;;;;;;;9.70;3.10;;;19.30;96.70;;;;;;5116918;27;20523;-78
2021/09/21 06:52:41;;;;;;;8.15;2.40;;;19.40;96.70;;;;;;5121618;27;20416;-75
2021/09/21 06:55:11;;;;;;;3.53;2.03;;;19.40;96.70;;;;;;5116114;27;20493;-75
2021/09/21 06:57:41;;;;;;;5.43;2.42;;;19.40;96.70;;;;;;5119746;27;20084;-77
2021/09/21 07:00:11;;;;;;;4.63;1.70;;;19.40;96.70;;;;;;5120913;27;20066;-76
2021/09/21 07:02:42;;;;;;;4.20;1.30;;;19.50;96.70;;;;;;5122698;27;20122;-77
2021/09/21 07:05:12;;;;;;;1.48;0.70;;;19.60;96.70;;;;;;5118010;27;20100;-78
2021/09/21 07:07:44;;;;;;;1.92;0.88;;;19.60;96.70;;;;;;5124351;27;20043;-77
2021/09/21 07:10:17;;;;;;;5.10;1.08;;;19.60;96.70;;;;;;5117927;27;20378;-78
2021/09/21 07:12:46;;;;;;;2.35;0.90;;;19.60;96.70;;;;;;5133365;27;20050;-80
2021/09/21 07:15:23;;;;;;;1.70;0.77;;;19.70;96.70;;;;;;5105534;27;20077;-78
2021/09/21 07:17:53;;;;;;;1.77;1.10;;;19.70;96.70;;;;;;5122004;27;20047;-77
2021/09/21 07:20:22;;;;;;;1.88;0.82;;;19.80;96.70;;;;;;5114264;27;21116;-76
2021/09/21 07:22:51;;;;;;;1.95;1.00;;;19.80;96.70;;;;;;5103027;27;20039;-76
2021/09/21 07:25:20;;;;;;;3.63;1.08;;;19.80;96.70;;;;;;5116446;27;20039;-76
2021/09/21 07:27:49;;;;;;;3.47;0.90;;;19.80;96.70;;;;;;5113012;27;20082;-76
2021/09/21 07:30:19;;;;;;;2.78;0.77;;;19.90;96.70;;;;;;5121964;27;20035;-75
2021/09/21 07:32:48;;;;;;;1.70;0.70;;;20.00;96.70;;;;;;5119554;27;20749;-75
2021/09/21 07:35:16;;;;;;;1.75;0.70;;;20.10;96.70;;;;;;5123717;27;20039;-76
2021/09/21 07:37:45;;;;;;;1.75;0.73;;;20.20;96.70;;;;;;5108308;27;20062;-76
2021/09/21 07:40:14;;;;;;;2.25;0.80;;;20.20;96.70;;;;;;5129139;27;20129;-76
2021/09/21 07:42:43;;;;;;;1.42;0.60;;;20.20;96.70;;;;;;5109527;27;20717;-74
2021/09/21 07:45:12;;;;;;;2.10;0.60;;;20.20;96.70;;;;;;5120986;27;20051;-76
2021/09/21 07:47:42;;;;;;;1.50;0.80;;;20.30;96.70;;;;;;5117772;27;20374;-76
2021/09/21 07:50:11;;;;;;;1.55;0.90;;;20.40;96.70;;;;;;5116634;27;20043;-76
2021/09/21 07:52:39;;;;;;;1.70;0.90;;;20.50;96.70;;;;;;5114641;27;20062;-76
2021/09/21 07:55:09;;;;;;;1.70;0.75;;;20.50;96.70;;;;;;5121277;27;20031;-76
2021/09/21 07:57:38;;;;;;;1.25;0.70;;;20.60;96.70;;;;;;5110413;27;20139;-76
2021/09/21 08:00:09;;;;;;;2.03;0.60;;;20.70;96.70;;;;;;5099667;27;20408;-76
2021/09/21 08:02:43;;;;;;;3.35;0.60;;;20.70;96.70;;;;;;5117667;27;20043;-76
2021/09/21 08:05:13;;;;;;;1.15;0.60;;;20.80;96.70;;;;;;5123026;27;20523;-75
2021/09/21 08:07:42;;;;;;;2.55;0.60;;;20.90;96.70;;;;;;5122193;27;20432;-76
2021/09/21 08:10:11;;;;;;;0.93;0.47;;;20.90;96.70;;;;;;5116629;27;20047;-76
2021/09/21 08:12:45;;;;;;;2.13;0.88;;;21.00;96.70;;;;;;5113764;27;20041;-76
2021/09/21 08:15:14;;;;;;;1.48;0.73;;;21.10;96.70;;;;;;5116209;27;20047;-76
2021/09/21 08:17:44;;;;;;;3.30;0.82;;;21.20;96.70;;;;;;5116638;27;20112;-76
2021/09/21 08:20:14;;;;;;;4.13;1.00;;;21.20;96.70;;;;;;5112829;27;20050;-75
2021/09/21 08:22:43;;;;;;;2.78;0.90;;;21.20;96.70;;;;;;5119839;27;20062;-76
2021/09/21 08:25:13;;;;;;;1.80;0.68;;;21.30;96.70;;;;;;5126841;27;20562;-76
2021/09/21 08:27:42;;;;;;;1.85;0.70;;;21.40;96.70;;;;;;5117212;27;20108;-75
2021/09/21 08:30:30;;;;;;;1.73;0.60;;;21.50;96.70;;;;;;5122045;27;20036;-75
2021/09/21 08:33:00;;;;;;;1.33;0.70;;;21.60;96.70;;;;;;5117981;27;20047;-76
2021/09/21 08:35:29;;;;;;;2.45;0.60;;;21.70;96.70;;;;;;5117467;27;20047;-77
2021/09/21 08:37:59;;;;;;;2.72;0.88;;;21.80;96.70;;;;;;5124455;27;20100;-77
2021/09/21 08:40:28;;;;;;;2.00;0.50;;;21.90;96.70;;;;;;5121927;27;20492;-76
2021/09/21 08:42:56;;;;;;;1.88;0.70;;;22.00;96.70;;;;;;5116617;27;20062;-76
2021/09/21 08:45:26;;;;;;;0.88;0.60;;;22.00;96.70;;;;;;5123488;27;20066;-77
2021/09/21 08:47:55;;;;;;;1.63;0.80;;;22.20;96.70;;;;;;5118759;27;20570;-82
2021/09/21 08:50:25;;;;;;;0.70;0.50;;;22.20;96.70;;;;;;5116586;27;20046;-81
2021/09/21 08:52:54;;;;;;;1.23;0.70;;;22.20;96.70;;;;;;5118100;27;20067;-81
2021/09/21 08:55:23;;;;;;;2.08;0.65;;;22.30;96.70;;;;;;5123114;27;20611;-81
2021/09/21 08:57:57;;;;;;;1.23;0.40;;;22.30;96.70;;;;;;5119995;27;20053;-82
2021/09/21 09:00:26;;;;;;;2.17;0.57;;;22.50;96.70;;;;;;5122130;27;20055;-81
2021/09/21 09:03:09;;;;;;;0.50;0.30;;;22.40;96.70;;;;;;5112177;27;20052;-80
2021/09/21 09:05:45;;;;;;;0.82;0.30;;;22.50;96.70;;;;;;5114812;27;20058;-81
2021/09/21 09:08:29;;;;;;;2.90;0.32;;;22.60;96.70;;;;;;5113848;27;20046;-81
2021/09/21 09:11:12;;;;;;;1.48;0.25;;;22.70;96.70;;;;;;5120850;27;20038;-76
2021/09/21 09:13:41;;;;;;;0.50;0.25;;;22.80;96.70;;;;;;5120979;27;20138;-77
2021/09/21 09:16:12;;;;;;;0.98;0.28;;;22.90;96.70;;;;;;5115693;27;20572;-76
2021/09/21 09:18:43;;;;;;;2.40;0.40;;;23.00;96.70;;;;;;5119313;27;20035;-82
2021/09/21 09:21:14;;;;;;;2.03;0.50;;;23.10;96.70;;;;;;5116227;27;20131;-76
2021/09/21 09:23:50;;;;;;;2.08;0.40;;;23.10;96.70;;;;;;5120736;27;20047;-76
2021/09/21 09:26:22;;;;;;;1.67;0.30;;;23.30;96.70;;;;;;5101964;27;20047;-77
2021/09/21 09:28:52;;;;;;;1.17;0.40;;;23.30;96.70;;;;;;5120696;27;20068;-76
2021/09/21 09:31:26;;;;;;;1.60;0.50;;;23.50;96.70;;;;;;5119646;27;20054;-76
2021/09/21 09:34:05;;;;;;;1.35;0.35;;;23.50;96.70;;;;;;5113026;27;20074;-76
2021/09/21 09:36:46;;;;;;;0.90;0.30;;;23.50;96.70;;;;;;5116643;27;20821;-76
2021/09/21 09:39:15;;;;;;;1.08;0.35;;;23.70;96.70;;;;;;5116034;27;20070;-75
2021/09/21 09:41:46;;;;;;;0.52;0.32;;;23.70;96.70;;;;;;5104400;27;20047;-76
2021/09/21 09:44:17;;;;;;;2.22;0.20;;;23.80;96.70;;;;;;5120756;27;20035;-76
2021/09/21 09:46:52;;;;;;;0.73;0.30;;;23.90;96.70;;;;;;5126858;27;20045;-76
2021/09/21 09:49:22;;;;;;;0.93;0.35;;;23.90;96.70;;;;;;5111489;27;20043;-76
2021/09/21 09:51:54;;;;;;;0.80;0.20;;;24.00;96.70;;;;;;5111760;27;20452;-76
2021/09/21 09:54:23;;;;;;;0.55;0.30;;;24.20;96.70;;;;;;5118946;27;20058;-76
2021/09/21 09:56:51;;;;;;;11.90;1.65;;;24.10;96.70;;;;;;5111432;27;20040;-75
2021/09/21 09:59:20;;;;;;;8.82;1.15;;;24.20;96.70;;;;;;5111413;27;20039;-77
2021/09/21 10:01:49;;;;;;;4.80;0.52;;;24.30;96.70;;;;;;5113531;27;20052;-76
2021/09/21 10:04:18;;;;;;;2.40;0.43;;;24.40;96.70;;;;;;5112248;27;20039;-77
2021/09/21 10:06:47;;;;;;;1.05;0.20;;;24.50;96.70;;;;;;5110499;27;20035;-77
2021/09/21 10:09:19;;;;;;;1.00;0.30;;;24.50;96.70;;;;;;5109112;27;20046;-76
2021/09/21 10:11:50;;;;;;;0.43;0.20;;;24.60;96.70;;;;;;5111501;27;20046;-76
2021/09/21 10:14:20;;;;;;;1.38;0.30;;;24.60;96.70;;;;;;5122204;27;20103;-75
2021/09/21 10:16:53;;;;;;;0.82;0.40;;;24.70;96.70;;;;;;5122194;27;20059;-75
2021/09/21 10:19:23;;;;;;;0.70;0.30;;;24.70;96.70;;;;;;5116610;27;20672;-76
2021/09/21 10:21:54;;;;;;;2.30;0.70;;;24.70;96.70;;;;;;5112335;27;20039;-76
2021/09/21 10:24:39;;;;;;;1.85;0.52;;;24.60;96.70;;;;;;5113727;27;20047;-76
2021/09/21 10:27:10;;;;;;;0.65;0.22;;;24.60;96.70;;;;;;5117549;27;20039;-76
2021/09/21 10:29:40;;;;;;;1.35;0.45;;;24.70;96.70;;;;;;5117690;27;20048;-76
2021/09/21 10:32:14;;;;;;;1.25;0.30;;;24.90;96.70;;;;;;5111277;27;20047;-76
2021/09/21 10:34:46;;;;;;;2.20;0.45;;;25.10;96.70;;;;;;5114518;28;20516;-76
2021/09/21 10:37:17;;;;;;;1.13;0.35;;;25.20;96.70;;;;;;5119513;27;20146;-76
2021/09/21 10:39:57;;;;;;;1.77;0.40;;;25.10;96.70;;;;;;5114699;27;20042;-76
2021/09/21 10:42:26;;;;;;;0.77;0.20;;;25.20;96.70;;;;;;5117302;27;20049;-76
2021/09/21 10:44:58;;;;;;;3.17;0.40;;;25.20;96.70;;;;;;5114607;27;20031;-76
2021/09/21 10:47:28;;;;;;;1.83;0.52;;;25.30;96.70;;;;;;5115409;27;20063;-76
2021/09/21 10:50:09;;;;;;;1.38;0.50;;;25.50;96.70;;;;;;5109133;27;20048;-76
2021/09/21 10:52:38;;;;;;;0.50;0.30;;;25.60;96.70;;;;;;5114468;27;20071;-76
2021/09/21 10:55:14;;;;;;;2.20;0.43;;;25.40;96.70;;;;;;5110076;27;20484;-76
2021/09/21 10:57:45;;;;;;;1.52;0.40;;;25.40;96.70;;;;;;5121612;27;20066;-76
2021/09/21 11:00:15;;;;;;;3.10;0.40;;;25.40;96.70;;;;;;5121483;27;20130;-76
2021/09/21 11:02:45;;;;;;;1.67;0.50;;;25.30;96.70;;;;;;5114549;27;20043;-76
2021/09/21 11:05:17;;;;;;;1.30;0.30;;;25.30;96.70;;;;;;5114242;27;20126;-76
2021/09/21 11:07:52;;;;;;;1.42;0.30;;;25.50;96.70;;;;;;5111800;27;20051;-76
2021/09/21 11:10:27;;;;;;;1.02;0.30;;;25.80;96.70;;;;;;5116385;27;20464;-76
2021/09/21 11:12:55;;;;;;;0.95;0.30;;;25.90;96.70;;;;;;5116042;27;20042;-76
2021/09/21 11:15:26;;;;;;;1.13;0.50;;;26.00;96.70;;;;;;5118952;27;20051;-76
2021/09/21 11:18:05;;;;;;;1.70;0.40;;;26.00;96.70;;;;;;5109123;27;20487;-76
2021/09/21 11:20:44;;;;;;;0.73;0.40;;;25.90;96.70;;;;;;5120646;27;20042;-77
2021/09/21 11:23:12;;;;;;;1.10;0.38;;;25.80;96.70;;;;;;5107552;28;20421;-76
2021/09/21 11:25:43;;;;;;;4.72;0.85;;;25.70;96.70;;;;;;5122299;27;20040;-76
2021/09/21 11:28:13;;;;;;;2.35;0.40;;;25.90;96.70;;;;;;5125681;27;20035;-76
2021/09/21 11:30:43;;;;;;;6.25;1.10;;;26.00;96.70;;;;;;5120677;27;20100;-76
2021/09/21 11:33:13;;;;;;;3.58;0.30;;;26.20;96.70;;;;;;5114104;27;20035;-76
2021/09/21 11:35:46;;;;;;;1.15;0.30;;;26.20;96.70;;;;;;5132116;27;20035;-76
2021/09/21 11:38:15;;;;;;;1.60;0.30;;;26.20;96.70;;;;;;5109703;27;20249;-76
2021/09/21 11:40:45;;;;;;;2.03;0.45;;;26.40;96.70;;;;;;5108640;27;20047;-76
2021/09/21 11:43:15;;;;;;;2.95;0.32;;;26.70;96.70;;;;;;5108382;27;20108;-76
2021/09/21 11:45:45;;;;;;;0.73;0.38;;;26.80;96.30;;;;;;5092111;27;20868;-76
2021/09/21 11:48:15;;;;;;;2.25;0.55;;;26.90;96.40;;;;;;5113905;27;20048;-76
2021/09/21 11:50:44;;;;;;;0.60;0.30;;;26.80;96.10;;;;;;5120182;27;20060;-76
2021/09/21 11:53:15;;;;;;;0.70;0.30;;;27.00;94.60;;;;;;5111657;27;20069;-76
2021/09/21 11:55:54;;;;;;;3.35;0.70;;;27.10;94.40;;;;;;5100333;27;20489;-76
2021/09/21 11:58:25;;;;;;;1.10;0.20;;;27.10;94.90;;;;;;5119499;27;20412;-76
2021/09/21 12:00:58;;;;;;;1.52;0.40;;;27.30;94.90;;;;;;5122757;27;20047;-76
2021/09/21 12:03:28;;;;;;;0.90;0.43;;;26.90;94.70;;;;;;5117872;27;20070;-76
2021/09/21 12:05:57;;;;;;;1.50;0.35;;;27.00;95.10;;;;;;5111319;27;20535;-76
2021/09/21 12:08:28;;;;;;;0.63;0.20;;;27.20;95.00;;;;;;5121130;27;20047;-76
2021/09/21 12:11:03;;;;;;;0.82;0.30;;;27.20;95.20;;;;;;5118580;27;20044;-76
2021/09/21 12:13:32;;;;;;;8.02;0.98;;;27.40;94.40;;;;;;5116494;27;20511;-76
2021/09/21 12:16:01;;;;;;;3.75;1.00;;;27.40;94.70;;;;;;5113342;27;20040;-75
2021/09/21 12:18:32;;;;;;;1.30;0.35;;;27.70;94.40;;;;;;5119474;27;20044;-76
2021/09/21 12:21:02;;;;;;;1.83;0.40;;;27.80;92.70;;;;;;5117470;27;20496;-76
2021/09/21 12:23:34;;;;;;;0.95;0.40;;;28.00;93.00;;;;;;5096152;27;20043;-76
2021/09/21 12:26:05;;;;;;;1.67;0.50;;;28.00;92.80;;;;;;5109630;27;20048;-76
2021/09/21 12:28:35;;;;;;;1.23;0.40;;;27.80;92.70;;;;;;5113640;27;20050;-76
2021/09/21 12:31:08;;;;;;;0.73;0.40;;;27.70;93.20;;;;;;5114561;27;20067;-76
2021/09/21 12:33:39;;;;;;;0.80;0.30;;;27.90;92.80;;;;;;5120259;27;20039;-76
2021/09/21 12:36:20;;;;;;;0.82;0.40;;;27.80;92.70;;;;;;5116722;27;20127;-75
2021/09/21 12:38:59;;;;;;;0.70;0.40;;;27.70;92.90;;;;;;5111970;27;20119;-76
2021/09/21 12:41:30;;;;;;;1.05;0.40;;;27.90;91.70;;;;;;5111009;27;20489;-77
2021/09/21 12:44:03;;;;;;;1.25;0.50;;;27.80;92.20;;;;;;5119099;27;20070;-78
2021/09/21 12:46:31;;;;;;;1.13;0.60;;;27.90;92.00;;;;;;5109969;27;20051;-78
2021/09/21 12:49:00;;;;;;;1.15;0.45;;;28.00;91.40;;;;;;5110626;27;20039;-78
2021/09/21 12:51:34;;;;;;;1.23;0.40;;;28.00;91.70;;;;;;5115370;27;20131;-78
2021/09/21 12:54:03;;;;;;;1.33;0.55;;;28.10;91.50;;;;;;5107602;27;20606;-77
2021/09/21 12:56:34;;;;;;;0.80;0.30;;;28.10;91.60;;;;;;5104268;27;20424;-76
2021/09/21 12:59:04;;;;;;;1.05;0.40;;;28.10;89.80;;;;;;5117002;27;20096;-76
2021/09/21 13:01:33;;;;;;;5.65;0.57;;;28.20;90.60;;;;;;5119519;27;20043;-76
2021/09/21 13:04:03;;;;;;;0.80;0.28;;;28.10;90.90;;;;;;5119696;27;20118;-76
2021/09/21 13:06:32;;;;;;;1.15;0.50;;;28.10;91.00;;;;;;5122118;27;20066;-76
2021/09/21 13:09:01;;;;;;;1.38;0.45;;;28.10;90.70;;;;;;5117272;27;20036;-76
2021/09/21 13:11:30;;;;;;;1.05;0.30;;;27.90;90.80;;;;;;5121796;27;20509;-76
2021/09/21 13:14:01;;;;;;;1.08;0.35;;;28.00;91.30;;;;;;5107632;27;20122;-76
2021/09/21 13:16:29;;;;;;;0.98;0.30;;;28.00;90.90;;;;;;5118950;27;20345;-76